フォークランド諸島 の空港の天気 - METARとTAF

マウント・プレザント空軍基地 ( EGYP / MPN ) - フォークランド諸島 フォークランド諸島
飛行場実況気象(Metar)
観測時間06/17 19:50 FKST (06/17 22:50 UTC)
風向・風速西 7m/s
視程10km以上
天気現象
なし
気温8℃
湿度66%
気圧1011hPa
METAREGYP 172250Z 27014KT CAVOK 08/02 Q1011 BLU
過去の天気等 Google飛行場航空写真 Wunderground天気予報

過去48時間のMETAR

飛行場予報(TAF)
発表時間: 6/17 19:46 FKST (6/17 22:46 UTC)
予報対象時間: 17日21時 FKST ~ 18日15時 FKST
風向・風速西 8m/s
視程10km以上
なし
18日10時 FKST ~ 18日12時 FKST に徐々に
風向・風速北 8m/s 瞬間風速 13m/s
18日12時 FKST ~ 18日15時 FKST に 確率 40% で一時的に
風向・風速北 13m/s 瞬間風速 18m/s
18日12時 FKST ~ 18日15時 FKST に 確率 30% で一時的に
風向・風速不定 4m/s
全天の4割程度の雲 雲底高度 210m
TAF EGYP 172246Z 1800/1818 27015KT CAVOK
BECMG 1813/1815 35015G25KT 520003
PROB40 TEMPO 1815/1818 35025G35KT 530003
PROB30 TEMPO 1815/1818 VRB07KT SCT007 560003